Time;durP1;ratioP1;P1;durP2;ratioP2;P2;SDS_P1;SDS_P2;PMS_P1;PMS_P2;Temp;Humidity;BMP_temperature;BMP_pressure;BME280_temperature;BME280_humidity;BME280_pressure;Samples;Min_cycle;Max_cycle;Signal;HPM_P1;HPM_P2
2023/06/22 00:01:51;;;;;;;7.17;5.63;;;26.50;99.90;;;;;;6265704;22;20184;-66
2023/06/22 00:04:16;;;;;;;6.60;6.00;;;26.40;99.90;;;;;;6269993;22;20146;-66
2023/06/22 00:06:42;;;;;;;7.33;5.70;;;26.40;99.90;;;;;;6269740;22;20174;-66
2023/06/22 00:09:08;;;;;;;6.60;5.90;;;26.40;99.90;;;;;;6266145;22;20174;-66
2023/06/22 00:11:33;;;;;;;6.60;5.87;;;26.30;99.90;;;;;;6269377;22;20366;-66
2023/06/22 00:13:59;;;;;;;7.43;5.40;;;26.30;99.90;;;;;;6270813;22;20253;-66
2023/06/22 00:16:25;;;;;;;8.03;6.73;;;26.30;99.90;;;;;;6270776;22;20311;-66
2023/06/22 00:18:51;;;;;;;6.57;5.77;;;26.30;99.90;;;;;;6270177;22;20909;-66
2023/06/22 00:21:16;;;;;;;6.80;5.83;;;26.30;99.90;;;;;;6269724;22;20598;-66
2023/06/22 00:23:42;;;;;;;6.83;6.13;;;26.30;99.90;;;;;;6269926;22;20243;-66
2023/06/22 00:26:07;;;;;;;10.67;5.80;;;26.30;99.90;;;;;;6268345;22;20151;-66
2023/06/22 00:28:34;;;;;;;6.47;5.77;;;26.30;99.90;;;;;;6270607;22;20167;-66
2023/06/22 00:31:00;;;;;;;7.97;6.10;;;25.80;99.90;;;;;;6270479;22;20162;-66
2023/06/22 00:33:26;;;;;;;7.97;6.43;;;25.60;99.90;;;;;;6264252;22;20833;-67
2023/06/22 00:35:53;;;;;;;12.23;7.80;;;25.40;99.90;;;;;;6264282;22;20416;-67
2023/06/22 00:38:19;;;;;;;13.27;7.10;;;25.40;99.90;;;;;;6265440;22;21005;-67
2023/06/22 00:40:44;;;;;;;13.30;8.23;;;25.40;99.90;;;;;;6266102;22;20377;-66
2023/06/22 00:43:10;;;;;;;16.40;7.10;;;25.40;99.90;;;;;;6265853;22;20150;-67
2023/06/22 00:45:36;;;;;;;8.53;7.00;;;25.40;99.90;;;;;;6262886;22;20257;-67
2023/06/22 00:48:02;;;;;;;10.13;6.67;;;25.40;99.90;;;;;;6265595;22;20170;-67
2023/06/22 00:50:33;;;;;;;8.40;6.73;;;25.40;99.90;;;;;;6265027;22;20456;-66
2023/06/22 00:53:08;;;;;;;8.07;6.20;;;25.30;99.90;;;;;;6266223;22;20453;-66
2023/06/22 00:55:37;;;;;;;7.50;6.70;;;25.30;99.90;;;;;;6266186;22;20435;-66
2023/06/22 00:58:05;;;;;;;10.90;6.30;;;25.20;99.90;;;;;;6266007;22;20438;-66
2023/06/22 01:00:32;;;;;;;9.17;7.50;;;25.10;99.90;;;;;;6263654;22;20389;-66
2023/06/22 01:02:58;;;;;;;9.13;7.00;;;25.00;99.90;;;;;;6264658;22;20611;-66
2023/06/22 01:05:24;;;;;;;9.17;6.93;;;25.00;99.90;;;;;;6266395;22;20373;-66
2023/06/22 01:08:19;;;;;;;7.83;7.00;;;25.00;99.90;;;;;;6268119;22;20174;-65
2023/06/22 01:10:47;;;;;;;9.00;7.00;;;25.00;99.90;;;;;;6240499;22;20864;-66
2023/06/22 01:13:37;;;;;;;7.70;6.90;;;24.90;99.90;;;;;;6266629;22;20412;-66
2023/06/22 01:16:12;;;;;;;10.00;7.77;;;24.90;99.90;;;;;;6268377;22;20417;-66
2023/06/22 01:18:42;;;;;;;11.33;8.30;;;24.90;99.90;;;;;;6266832;22;20395;-66
2023/06/22 01:21:11;;;;;;;9.27;7.80;;;24.80;99.90;;;;;;6266932;22;20369;-65
2023/06/22 01:23:56;;;;;;;9.33;8.03;;;24.80;99.90;;;;;;6266051;22;20378;-65
2023/06/22 01:26:46;;;;;;;9.40;7.53;;;24.70;99.90;;;;;;6268144;22;20368;-66
2023/06/22 01:29:14;;;;;;;8.90;6.97;;;24.70;99.90;;;;;;6266624;22;20393;-66
2023/06/22 01:31:42;;;;;;;8.97;8.07;;;24.70;99.90;;;;;;6266861;22;20903;-66
2023/06/22 01:34:09;;;;;;;8.40;7.50;;;24.70;99.90;;;;;;6267637;22;20365;-66
2023/06/22 01:36:36;;;;;;;8.90;7.63;;;24.60;99.90;;;;;;6269115;22;20430;-66
2023/06/22 01:39:05;;;;;;;8.53;7.47;;;24.60;99.90;;;;;;6266779;22;20416;-65
2023/06/22 01:41:35;;;;;;;8.77;7.03;;;24.60;99.90;;;;;;6267783;22;20734;-66
2023/06/22 01:44:02;;;;;;;23.70;8.40;;;24.60;99.90;;;;;;6266806;22;20410;-65
2023/06/22 01:46:28;;;;;;;10.40;8.47;;;24.60;99.90;;;;;;6268192;22;20369;-66
2023/06/22 01:48:55;;;;;;;10.23;7.90;;;24.50;99.90;;;;;;6240233;22;20403;-66
2023/06/22 01:51:20;;;;;;;9.67;7.90;;;24.50;99.90;;;;;;6267666;22;20440;-67
2023/06/22 01:53:47;;;;;;;10.43;8.60;;;24.50;99.90;;;;;;6268074;22;20377;-67
2023/06/22 01:56:15;;;;;;;9.03;7.93;;;24.50;99.90;;;;;;6266142;22;20184;-67
2023/06/22 01:58:50;;;;;;;11.93;7.77;;;24.50;99.90;;;;;;6266549;22;20396;-66
2023/06/22 02:01:26;;;;;;;9.20;8.20;;;24.50;99.90;;;;;;6267584;22;20825;-66
2023/06/22 02:04:03;;;;;;;8.07;7.20;;;24.50;99.90;;;;;;6266271;22;20977;-67
2023/06/22 02:06:35;;;;;;;14.63;8.13;;;24.40;99.90;;;;;;6266261;22;20365;-66
2023/06/22 02:09:07;;;;;;;8.73;7.83;;;24.40;99.90;;;;;;6267478;22;20404;-67
2023/06/22 02:11:34;;;;;;;12.27;7.70;;;24.40;99.90;;;;;;6266510;22;20366;-67
2023/06/22 02:14:00;;;;;;;10.33;7.70;;;24.40;99.90;;;;;;6267041;22;20382;-67
2023/06/22 02:16:29;;;;;;;8.13;7.20;;;24.40;99.90;;;;;;6265396;22;20448;-67
2023/06/22 02:19:01;;;;;;;9.33;8.40;;;24.40;99.90;;;;;;6266830;22;20174;-67
2023/06/22 02:21:27;;;;;;;8.33;7.53;;;24.40;99.90;;;;;;6266163;22;20828;-67
2023/06/22 02:23:52;;;;;;;11.23;8.20;;;24.30;99.90;;;;;;6266808;22;20369;-67
2023/06/22 02:26:18;;;;;;;11.67;8.20;;;24.30;99.90;;;;;;6266699;22;20155;-66
2023/06/22 02:28:44;;;;;;;8.63;7.50;;;24.20;99.90;;;;;;6266261;22;20166;-66
2023/06/22 02:31:10;;;;;;;12.83;8.33;;;24.20;99.90;;;;;;6267529;22;20204;-66
2023/06/22 02:33:35;;;;;;;10.00;8.30;;;24.20;99.90;;;;;;6265822;22;20783;-67
2023/06/22 02:36:04;;;;;;;8.10;7.40;;;24.20;99.90;;;;;;6267534;22;20259;-66
2023/06/22 02:38:34;;;;;;;8.87;7.20;;;24.20;99.90;;;;;;6267367;22;20194;-66
2023/06/22 02:40:59;;;;;;;14.60;8.73;;;24.20;99.90;;;;;;6267175;22;20927;-66
2023/06/22 02:43:25;;;;;;;13.20;8.60;;;24.20;99.90;;;;;;6265392;22;20377;-66
2023/06/22 02:45:51;;;;;;;11.40;7.93;;;24.20;99.90;;;;;;6265267;22;20166;-66
2023/06/22 02:48:16;;;;;;;10.60;7.40;;;24.20;99.90;;;;;;6266423;22;20171;-66
2023/06/22 02:50:42;;;;;;;8.83;7.63;;;24.20;99.90;;;;;;6266679;22;20260;-67
2023/06/22 02:53:07;;;;;;;11.00;7.77;;;24.10;99.90;;;;;;6267962;22;20162;-65
2023/06/22 02:55:33;;;;;;;8.60;7.80;;;24.10;99.90;;;;;;6266585;22;20175;-66
2023/06/22 02:57:59;;;;;;;9.23;8.30;;;24.10;99.90;;;;;;6239988;22;20174;-66
2023/06/22 03:00:30;;;;;;;8.47;7.10;;;24.10;99.90;;;;;;6264747;22;20158;-66
2023/06/22 03:02:56;;;;;;;13.53;8.40;;;24.10;99.90;;;;;;6239976;22;20972;-66
2023/06/22 03:05:21;;;;;;;9.53;7.57;;;24.10;99.90;;;;;;6266967;22;20427;-66
2023/06/22 03:07:47;;;;;;;8.70;7.90;;;24.10;99.90;;;;;;6267040;22;20660;-66
2023/06/22 03:10:14;;;;;;;8.53;7.63;;;24.10;99.90;;;;;;6266290;22;20146;-66
2023/06/22 03:12:40;;;;;;;12.47;9.30;;;24.10;99.90;;;;;;6266178;22;20147;-66
2023/06/22 03:15:07;;;;;;;15.67;8.20;;;24.00;99.90;;;;;;6266407;22;20857;-66
2023/06/22 03:17:34;;;;;;;13.10;7.97;;;24.00;99.90;;;;;;6266061;22;20720;-66
2023/06/22 03:20:01;;;;;;;11.07;9.17;;;24.00;99.90;;;;;;6264398;22;20467;-66
2023/06/22 03:22:26;;;;;;;12.00;8.27;;;24.00;99.90;;;;;;6265276;22;20373;-66
2023/06/22 03:24:52;;;;;;;10.07;8.10;;;24.00;99.90;;;;;;6266399;22;20476;-66
2023/06/22 03:27:18;;;;;;;10.00;8.90;;;24.00;99.90;;;;;;6267087;22;20150;-65
2023/06/22 03:29:44;;;;;;;8.33;7.50;;;24.00;99.90;;;;;;6264826;22;20250;-66
2023/06/22 03:32:10;;;;;;;15.33;8.63;;;24.00;99.90;;;;;;6267561;22;20381;-66
2023/06/22 03:34:35;;;;;;;9.87;8.63;;;23.90;99.90;;;;;;6265419;22;20381;-66
2023/06/22 03:37:01;;;;;;;9.50;8.50;;;23.90;99.90;;;;;;6267470;22;20146;-66
2023/06/22 03:39:27;;;;;;;8.97;7.73;;;23.90;99.90;;;;;;6264752;22;20167;-66
2023/06/22 03:41:52;;;;;;;9.00;8.10;;;23.90;99.90;;;;;;6239499;22;20174;-66
2023/06/22 03:44:18;;;;;;;9.60;7.87;;;23.90;99.90;;;;;;6266308;22;20208;-66
2023/06/22 03:46:43;;;;;;;15.80;8.60;;;23.90;99.90;;;;;;6265527;22;20155;-66
2023/06/22 03:49:09;;;;;;;13.10;9.50;;;23.90;99.90;;;;;;6265640;22;20176;-66
2023/06/22 03:51:34;;;;;;;9.60;8.03;;;23.80;99.90;;;;;;6264305;22;20182;-66
2023/06/22 03:54:00;;;;;;;10.80;9.37;;;23.90;99.90;;;;;;6267415;22;20798;-66
2023/06/22 03:56:25;;;;;;;11.00;8.43;;;23.90;99.90;;;;;;6265653;22;20520;-66
2023/06/22 03:58:51;;;;;;;11.50;9.07;;;23.90;99.90;;;;;;6265709;22;20840;-66
2023/06/22 04:01:17;;;;;;;11.47;7.90;;;23.80;99.90;;;;;;6266270;22;20633;-66
2023/06/22 04:03:43;;;;;;;8.90;7.80;;;23.80;99.90;;;;;;6263921;22;20204;-66
2023/06/22 04:06:08;;;;;;;10.20;9.00;;;23.80;99.90;;;;;;6267472;22;20276;-65
2023/06/22 04:08:34;;;;;;;9.60;7.90;;;23.80;99.90;;;;;;6263075;22;20281;-66
2023/06/22 04:11:00;;;;;;;8.33;7.53;;;23.80;99.90;;;;;;6266462;22;20367;-66
2023/06/22 04:13:25;;;;;;;9.33;8.30;;;23.80;99.90;;;;;;6265927;22;20150;-65
2023/06/22 04:15:51;;;;;;;11.67;9.20;;;23.80;99.90;;;;;;6266049;22;20482;-65
2023/06/22 04:18:16;;;;;;;11.30;8.80;;;23.80;99.90;;;;;;6266600;22;20173;-65
2023/06/22 04:20:44;;;;;;;9.37;8.47;;;23.80;99.90;;;;;;6235759;22;20155;-66
2023/06/22 04:23:10;;;;;;;10.03;8.33;;;23.80;99.90;;;;;;6264903;22;20230;-65
2023/06/22 04:25:35;;;;;;;12.97;8.00;;;23.80;99.90;;;;;;6266337;22;21096;-66
2023/06/22 04:28:03;;;;;;;9.47;8.13;;;23.80;99.90;;;;;;6265419;22;20175;-66
2023/06/22 04:30:28;;;;;;;10.97;8.23;;;23.80;99.90;;;;;;6264366;22;20154;-66
2023/06/22 04:32:57;;;;;;;9.20;8.27;;;23.80;99.90;;;;;;6266668;22;20797;-66
2023/06/22 04:35:23;;;;;;;10.67;9.03;;;23.80;99.90;;;;;;6264032;22;20174;-66
2023/06/22 04:37:49;;;;;;;10.10;8.20;;;23.80;99.90;;;;;;6265208;22;20389;-66
2023/06/22 04:40:16;;;;;;;9.03;8.07;;;23.80;99.90;;;;;;6265102;22;20769;-66
2023/06/22 04:42:51;;;;;;;11.70;8.13;;;23.80;99.90;;;;;;6266186;22;20147;-66
2023/06/22 04:45:17;;;;;;;9.43;8.20;;;23.80;99.90;;;;;;6265383;22;20431;-66
2023/06/22 04:47:45;;;;;;;8.60;7.50;;;23.80;99.90;;;;;;6265526;22;20374;-66
2023/06/22 04:50:12;;;;;;;12.67;9.97;;;23.90;99.90;;;;;;6264215;22;20373;-66
2023/06/22 04:52:38;;;;;;;10.40;9.40;;;23.90;99.90;;;;;;6265072;22;20373;-66
2023/06/22 04:55:04;;;;;;;10.07;9.00;;;23.90;99.90;;;;;;6238828;22;20501;-66
2023/06/22 04:57:32;;;;;;;9.13;8.17;;;23.90;99.90;;;;;;6265630;22;20393;-66
2023/06/22 05:00:13;;;;;;;9.37;8.10;;;23.90;99.90;;;;;;6264800;22;20393;-66
2023/06/22 05:02:41;;;;;;;10.00;8.93;;;23.90;99.90;;;;;;6261907;22;20365;-66
2023/06/22 05:05:07;;;;;;;9.90;8.90;;;23.90;99.90;;;;;;6265209;22;20382;-66
2023/06/22 05:07:36;;;;;;;12.33;9.37;;;23.90;99.90;;;;;;6265234;22;20377;-67
2023/06/22 05:10:03;;;;;;;9.13;8.23;;;23.90;99.90;;;;;;6239178;22;20377;-66
2023/06/22 05:12:29;;;;;;;9.07;7.83;;;24.00;99.90;;;;;;6266191;22;20382;-66
2023/06/22 05:14:55;;;;;;;10.33;8.77;;;23.90;99.90;;;;;;6264041;22;20454;-67
2023/06/22 05:17:20;;;;;;;10.80;9.70;;;23.90;99.90;;;;;;6266462;22;20369;-66
2023/06/22 05:19:49;;;;;;;12.40;9.33;;;23.90;99.90;;;;;;6263957;22;20718;-67
2023/06/22 05:22:15;;;;;;;10.57;9.57;;;23.90;99.90;;;;;;6266736;22;20231;-66
2023/06/22 05:24:42;;;;;;;9.93;7.87;;;23.80;99.90;;;;;;6264447;22;20436;-67
2023/06/22 05:27:08;;;;;;;9.90;8.90;;;23.90;99.90;;;;;;6266961;22;20377;-65
2023/06/22 05:29:33;;;;;;;10.00;8.43;;;23.90;99.90;;;;;;6264687;22;20415;-66
2023/06/22 05:31:59;;;;;;;8.90;8.00;;;23.90;99.90;;;;;;6264709;22;20158;-65
2023/06/22 05:34:24;;;;;;;9.40;8.10;;;23.90;99.90;;;;;;6264491;22;20668;-66
2023/06/22 05:36:50;;;;;;;9.77;8.83;;;23.90;99.90;;;;;;6238910;22;20630;-66
2023/06/22 05:39:15;;;;;;;9.57;8.57;;;23.90;99.90;;;;;;6265581;22;20245;-66
2023/06/22 05:41:43;;;;;;;12.00;9.20;;;23.90;99.90;;;;;;6265670;22;20143;-66
2023/06/22 05:44:08;;;;;;;10.90;9.60;;;23.90;99.90;;;;;;6264787;22;20146;-66
2023/06/22 05:46:34;;;;;;;11.30;8.90;;;23.90;99.90;;;;;;6264881;22;20460;-66
2023/06/22 05:48:59;;;;;;;10.07;8.83;;;23.90;99.90;;;;;;6264303;22;20240;-66
2023/06/22 05:51:25;;;;;;;11.47;8.47;;;23.80;99.90;;;;;;6263857;22;20161;-66
2023/06/22 05:53:50;;;;;;;10.97;8.50;;;23.80;99.90;;;;;;6266674;22;20150;-66
2023/06/22 05:56:17;;;;;;;11.27;8.83;;;23.80;99.90;;;;;;6267571;22;20208;-66
2023/06/22 05:58:42;;;;;;;11.50;9.90;;;23.90;99.90;;;;;;6265489;22;20193;-67
2023/06/22 06:01:08;;;;;;;11.17;8.60;;;23.90;99.90;;;;;;6265545;22;20487;-66
2023/06/22 06:03:33;;;;;;;8.53;7.70;;;24.00;99.90;;;;;;6266832;22;20143;-66
2023/06/22 06:05:59;;;;;;;9.93;8.63;;;24.00;99.90;;;;;;6267987;22;20150;-66
2023/06/22 06:08:25;;;;;;;12.70;8.63;;;24.10;99.90;;;;;;6266726;22;20255;-66
2023/06/22 06:10:52;;;;;;;11.03;8.23;;;24.00;99.90;;;;;;6265882;22;20151;-66
2023/06/22 06:13:18;;;;;;;10.93;8.67;;;24.10;99.90;;;;;;6267144;22;20373;-67
2023/06/22 06:15:44;;;;;;;11.63;8.53;;;24.10;99.90;;;;;;6265576;22;20926;-66
2023/06/22 06:18:09;;;;;;;10.67;9.30;;;24.20;99.90;;;;;;6263031;22;21050;-66
2023/06/22 06:20:35;;;;;;;12.27;8.67;;;24.20;99.90;;;;;;6237349;22;20462;-66
2023/06/22 06:23:01;;;;;;;14.57;8.20;;;24.20;99.90;;;;;;6263944;22;20599;-67
2023/06/22 06:25:27;;;;;;;9.83;8.83;;;24.20;99.90;;;;;;6267271;22;20841;-67
2023/06/22 06:27:54;;;;;;;13.03;8.00;;;24.20;99.90;;;;;;6265937;22;20398;-67
2023/06/22 06:30:20;;;;;;;9.70;8.70;;;24.30;99.90;;;;;;6261910;22;20233;-67
2023/06/22 06:32:46;;;;;;;9.10;8.20;;;24.40;99.90;;;;;;6262927;22;20468;-67
2023/06/22 06:35:13;;;;;;;12.33;8.80;;;24.40;99.90;;;;;;6265626;22;20450;-67
2023/06/22 06:37:41;;;;;;;12.43;9.80;;;24.40;99.90;;;;;;6263695;22;20147;-67
2023/06/22 06:40:10;;;;;;;11.20;9.13;;;24.40;99.90;;;;;;6265379;22;20400;-67
2023/06/22 06:42:37;;;;;;;14.43;9.00;;;24.50;99.90;;;;;;6265826;22;20365;-67
2023/06/22 06:45:04;;;;;;;10.63;8.07;;;24.60;99.90;;;;;;6265775;22;20473;-67
2023/06/22 06:47:30;;;;;;;10.53;9.13;;;24.60;99.90;;;;;;6264765;22;20752;-67
2023/06/22 06:49:56;;;;;;;9.97;7.73;;;24.60;99.90;;;;;;6237790;22;20389;-67
2023/06/22 06:52:21;;;;;;;11.43;9.60;;;24.70;99.90;;;;;;6265427;22;20405;-67
2023/06/22 06:54:47;;;;;;;11.93;10.53;;;24.80;99.90;;;;;;6263680;22;20586;-67
2023/06/22 06:57:13;;;;;;;9.90;9.00;;;24.90;99.90;;;;;;6266562;22;20149;-67
2023/06/22 06:59:39;;;;;;;14.00;9.30;;;25.00;99.90;;;;;;6265136;22;20254;-67
2023/06/22 07:02:05;;;;;;;14.70;12.70;;;25.00;99.90;;;;;;6261089;22;20475;-68
2023/06/22 07:04:30;;;;;;;14.70;11.13;;;25.10;99.90;;;;;;6266716;22;20931;-68
2023/06/22 07:06:56;;;;;;;9.83;8.83;;;25.20;99.90;;;;;;6265757;22;20373;-67
2023/06/22 07:09:21;;;;;;;16.80;10.90;;;25.30;99.90;;;;;;6265917;22;20177;-67
2023/06/22 07:11:47;;;;;;;10.80;8.20;;;25.30;99.90;;;;;;6264654;22;20212;-67
2023/06/22 07:14:12;;;;;;;13.00;9.30;;;25.30;99.90;;;;;;6265731;22;20159;-68
2023/06/22 07:16:38;;;;;;;11.40;9.10;;;25.40;99.90;;;;;;6265604;22;20198;-67
2023/06/22 07:19:04;;;;;;;10.43;9.30;;;25.50;99.90;;;;;;6264384;22;20163;-67
2023/06/22 07:21:29;;;;;;;10.90;9.80;;;25.50;99.90;;;;;;6265747;22;20165;-68
2023/06/22 07:23:56;;;;;;;14.70;11.70;;;25.50;99.90;;;;;;6263631;22;20224;-67
2023/06/22 07:26:21;;;;;;;10.53;8.63;;;25.60;99.90;;;;;;6265706;22;20178;-68
2023/06/22 07:28:47;;;;;;;10.67;9.57;;;25.70;99.90;;;;;;6264445;22;20450;-67
2023/06/22 07:31:13;;;;;;;12.03;8.87;;;25.80;99.90;;;;;;6266249;22;20238;-66
2023/06/22 07:33:38;;;;;;;12.73;8.70;;;25.80;99.90;;;;;;6262423;22;20790;-67
2023/06/22 07:36:07;;;;;;;12.00;10.80;;;25.90;99.90;;;;;;6264084;22;20186;-67
2023/06/22 07:38:33;;;;;;;8.80;7.90;;;25.90;99.90;;;;;;6263917;22;20224;-67
2023/06/22 07:40:59;;;;;;;12.73;10.97;;;26.00;99.90;;;;;;6259430;22;20374;-67
2023/06/22 07:43:24;;;;;;;10.40;8.67;;;26.00;99.90;;;;;;6265500;22;20376;-67
2023/06/22 07:45:54;;;;;;;10.60;8.77;;;26.10;99.90;;;;;;6262407;22;20154;-68
2023/06/22 07:48:22;;;;;;;13.17;10.40;;;26.10;99.90;;;;;;6264887;22;20174;-67
2023/06/22 07:50:48;;;;;;;9.00;8.10;;;26.20;99.90;;;;;;6262049;22;20430;-67
2023/06/22 07:53:14;;;;;;;13.17;9.83;;;26.30;99.90;;;;;;6266558;22;20456;-67
2023/06/22 07:55:39;;;;;;;9.03;8.10;;;26.30;99.90;;;;;;6264221;22;20424;-68
2023/06/22 07:58:05;;;;;;;9.73;8.10;;;26.40;99.90;;;;;;6265144;22;20182;-67
2023/06/22 08:00:31;;;;;;;12.40;7.63;;;26.40;99.90;;;;;;6265812;22;20159;-67
2023/06/22 08:02:56;;;;;;;8.10;7.30;;;26.50;99.90;;;;;;6261944;22;20178;-67
2023/06/22 08:05:22;;;;;;;14.17;8.20;;;26.60;99.90;;;;;;6265806;22;20189;-66
2023/06/22 08:07:48;;;;;;;11.07;8.30;;;26.70;99.90;;;;;;6264525;22;20175;-67
2023/06/22 08:10:14;;;;;;;10.90;8.43;;;26.70;99.90;;;;;;6265614;22;20224;-67
2023/06/22 08:12:40;;;;;;;13.17;7.77;;;26.80;99.90;;;;;;6265674;22;20375;-68
2023/06/22 08:15:07;;;;;;;8.90;8.00;;;26.80;99.90;;;;;;6265399;22;20422;-68
2023/06/22 08:17:33;;;;;;;9.47;7.60;;;26.90;99.90;;;;;;6266348;22;20400;-67
2023/06/22 08:19:58;;;;;;;10.97;8.53;;;26.90;99.90;;;;;;6263800;22;20722;-67
2023/06/22 08:22:24;;;;;;;14.10;9.27;;;27.00;99.90;;;;;;6264419;22;20753;-67
2023/06/22 08:24:49;;;;;;;9.60;7.97;;;27.10;99.90;;;;;;6263117;22;20155;-67
2023/06/22 08:27:16;;;;;;;9.70;7.97;;;27.10;99.90;;;;;;6266472;22;20151;-67
2023/06/22 08:29:42;;;;;;;12.30;7.47;;;27.20;99.90;;;;;;6264606;22;20220;-67
2023/06/22 08:32:11;;;;;;;12.77;7.67;;;27.30;99.90;;;;;;6263951;22;20373;-66
2023/06/22 08:34:37;;;;;;;10.50;7.60;;;27.40;99.90;;;;;;6265398;22;20629;-67
2023/06/22 08:37:06;;;;;;;8.67;7.10;;;27.50;99.90;;;;;;6261447;22;20420;-67
2023/06/22 08:39:32;;;;;;;8.93;6.73;;;27.60;99.90;;;;;;6263453;22;20162;-67
2023/06/22 08:41:57;;;;;;;14.17;7.93;;;27.70;99.90;;;;;;6261476;22;20412;-67
2023/06/22 08:44:23;;;;;;;15.73;7.57;;;27.80;99.90;;;;;;6263233;22;20454;-67
2023/06/22 08:46:49;;;;;;;8.90;6.97;;;27.80;99.90;;;;;;6257813;22;20162;-68
2023/06/22 08:49:15;;;;;;;10.27;7.23;;;28.00;99.90;;;;;;6261107;22;20174;-69
2023/06/22 08:51:40;;;;;;;9.50;7.10;;;28.10;99.90;;;;;;6259935;22;20749;-68
2023/06/22 08:54:06;;;;;;;11.77;7.00;;;28.30;99.90;;;;;;6262881;22;20382;-68
2023/06/22 08:56:31;;;;;;;8.20;7.37;;;28.40;99.90;;;;;;6265699;22;20178;-68
2023/06/22 08:58:57;;;;;;;11.60;7.97;;;28.50;99.90;;;;;;6259497;22;20173;-68
2023/06/22 09:01:23;;;;;;;13.97;7.37;;;28.50;99.90;;;;;;6233767;22;20200;-67
2023/06/22 09:03:55;;;;;;;7.77;6.50;;;28.60;99.90;;;;;;6261417;22;20158;-67
2023/06/22 09:06:21;;;;;;;8.50;7.70;;;28.70;99.90;;;;;;6255426;22;20137;-67
2023/06/22 09:08:47;;;;;;;10.47;7.10;;;28.80;99.90;;;;;;6258746;22;21045;-66
2023/06/22 09:11:13;;;;;;;9.23;7.17;;;28.80;99.90;;;;;;6261483;22;20635;-66
2023/06/22 09:13:39;;;;;;;12.27;7.90;;;28.90;99.90;;;;;;6261131;22;20387;-67
2023/06/22 09:16:04;;;;;;;9.03;7.10;;;28.90;99.90;;;;;;6231807;22;20186;-67
2023/06/22 09:18:30;;;;;;;12.23;6.93;;;28.90;99.90;;;;;;6261269;22;20661;-67
2023/06/22 09:20:56;;;;;;;8.53;6.40;;;29.00;99.90;;;;;;6259240;22;20154;-67
2023/06/22 09:23:21;;;;;;;9.00;7.20;;;28.90;99.90;;;;;;6260277;22;20147;-67
2023/06/22 09:25:47;;;;;;;8.40;7.53;;;29.00;99.90;;;;;;6261264;22;20151;-67
2023/06/22 09:28:14;;;;;;;10.60;7.57;;;29.00;99.90;;;;;;6261494;22;20177;-67
2023/06/22 09:30:39;;;;;;;9.00;6.50;;;29.00;99.90;;;;;;6261347;22;20205;-67
2023/06/22 09:33:05;;;;;;;8.87;6.70;;;29.00;99.90;;;;;;6262208;22;20388;-66
2023/06/22 09:35:30;;;;;;;8.60;7.60;;;29.10;99.90;;;;;;6266658;22;20186;-66
2023/06/22 09:37:56;;;;;;;11.63;6.60;;;29.10;99.90;;;;;;6264594;22;20170;-66
2023/06/22 09:40:22;;;;;;;8.33;7.40;;;29.20;99.90;;;;;;6265527;22;20171;-66
2023/06/22 09:42:47;;;;;;;10.93;8.90;;;29.30;99.90;;;;;;6266890;22;20207;-66
2023/06/22 09:45:13;;;;;;;8.40;7.07;;;29.40;99.90;;;;;;6261293;22;20154;-66
2023/06/22 09:47:38;;;;;;;10.47;7.07;;;29.50;99.90;;;;;;6266190;22;20594;-66
2023/06/22 09:50:05;;;;;;;10.20;7.60;;;29.60;99.90;;;;;;6262665;22;20206;-66
2023/06/22 09:52:31;;;;;;;9.57;7.20;;;29.70;99.90;;;;;;6266342;22;20143;-67
2023/06/22 09:54:56;;;;;;;9.67;6.93;;;29.70;99.90;;;;;;6266599;22;20373;-67
2023/06/22 09:57:22;;;;;;;9.03;7.37;;;29.80;99.90;;;;;;6265881;22;20639;-67
2023/06/22 09:59:47;;;;;;;10.03;7.93;;;29.90;99.90;;;;;;6266507;22;20212;-67
2023/06/22 10:02:13;;;;;;;9.77;7.50;;;29.90;99.90;;;;;;6264346;22;20461;-68
2023/06/22 10:04:40;;;;;;;8.50;6.90;;;29.90;99.90;;;;;;6266469;22;20154;-67
2023/06/22 10:07:05;;;;;;;8.80;7.30;;;30.00;99.90;;;;;;6267791;22;20165;-67
2023/06/22 10:09:31;;;;;;;13.00;7.10;;;30.00;99.90;;;;;;6267980;22;20393;-67
2023/06/22 10:11:57;;;;;;;10.93;8.43;;;30.00;99.90;;;;;;6236630;22;20246;-67
2023/06/22 10:14:24;;;;;;;8.13;7.33;;;30.00;99.90;;;;;;6267136;22;20725;-67
2023/06/22 10:16:51;;;;;;;7.80;7.00;;;30.10;99.90;;;;;;6268259;22;20178;-67
2023/06/22 10:19:16;;;;;;;10.47;7.53;;;30.10;99.90;;;;;;6266164;22;20729;-67
2023/06/22 10:21:42;;;;;;;12.40;7.40;;;30.20;99.90;;;;;;6264774;22;20399;-67
2023/06/22 10:24:08;;;;;;;9.67;8.20;;;30.20;99.90;;;;;;6235447;22;20158;-67
2023/06/22 10:26:34;;;;;;;7.73;6.83;;;30.20;99.90;;;;;;6268462;22;20234;-67
2023/06/22 10:29:01;;;;;;;9.43;7.13;;;30.30;99.90;;;;;;6263598;22;20795;-67
2023/06/22 10:31:27;;;;;;;12.13;7.10;;;30.30;99.90;;;;;;6267486;22;20779;-67
2023/06/22 10:33:53;;;;;;;9.63;7.90;;;30.30;99.90;;;;;;6266210;22;20876;-67
2023/06/22 10:36:19;;;;;;;8.00;6.73;;;30.40;99.90;;;;;;6267117;22;20417;-67
2023/06/22 10:38:46;;;;;;;10.90;7.53;;;30.40;99.90;;;;;;6265596;22;20404;-67
2023/06/22 10:41:12;;;;;;;11.43;7.60;;;30.50;99.90;;;;;;6266884;22;20409;-67
2023/06/22 10:43:38;;;;;;;9.67;7.60;;;30.50;99.90;;;;;;6265384;22;20468;-67
2023/06/22 10:46:03;;;;;;;6.77;6.10;;;30.50;99.90;;;;;;6263950;22;20321;-67
2023/06/22 10:48:29;;;;;;;11.70;7.80;;;30.60;99.90;;;;;;6267074;22;20175;-67
2023/06/22 10:50:54;;;;;;;11.40;7.23;;;30.60;99.90;;;;;;6267181;22;20147;-67
2023/06/22 10:53:21;;;;;;;9.20;7.30;;;30.60;99.90;;;;;;6268038;22;20480;-67
2023/06/22 10:55:47;;;;;;;7.57;6.83;;;30.70;99.90;;;;;;6263782;22;20181;-67
2023/06/22 10:58:12;;;;;;;7.70;6.90;;;30.70;99.90;;;;;;6266298;22;20710;-67
2023/06/22 11:00:38;;;;;;;10.37;6.87;;;30.80;99.90;;;;;;6267339;22;20477;-66
2023/06/22 11:03:03;;;;;;;8.70;7.20;;;30.90;99.90;;;;;;6263379;22;20193;-67
2023/06/22 11:05:29;;;;;;;9.87;7.57;;;31.00;99.90;;;;;;6267895;22;20146;-67
2023/06/22 11:07:54;;;;;;;8.33;7.50;;;31.10;99.90;;;;;;6267296;22;20174;-67
2023/06/22 11:10:20;;;;;;;14.27;8.47;;;31.20;99.90;;;;;;6266576;22;20161;-67
2023/06/22 11:12:46;;;;;;;11.83;8.03;;;31.30;99.90;;;;;;6265827;22;20161;-67
2023/06/22 11:15:11;;;;;;;15.30;8.57;;;31.30;99.90;;;;;;6263866;22;20178;-67
2023/06/22 11:17:37;;;;;;;11.23;8.07;;;31.40;99.90;;;;;;6263462;22;20142;-67
2023/06/22 11:20:10;;;;;;;9.90;7.43;;;31.50;99.90;;;;;;6265145;22;20147;-67
2023/06/22 11:22:37;;;;;;;8.50;7.50;;;31.50;99.90;;;;;;6266935;22;20131;-68
2023/06/22 11:25:02;;;;;;;10.33;8.20;;;31.50;99.90;;;;;;6264759;22;20377;-68
2023/06/22 11:27:28;;;;;;;11.13;8.20;;;31.50;99.90;;;;;;6263804;22;20923;-67
2023/06/22 11:29:53;;;;;;;11.43;8.33;;;31.60;99.90;;;;;;6264646;22;20150;-67
2023/06/22 11:32:19;;;;;;;9.20;8.23;;;31.70;99.90;;;;;;6266585;22;20150;-67
2023/06/22 11:34:45;;;;;;;9.03;8.13;;;31.80;99.90;;;;;;6264026;22;20162;-67
2023/06/22 11:37:10;;;;;;;7.90;7.00;;;31.80;99.90;;;;;;6265714;22;20153;-67
2023/06/22 11:39:36;;;;;;;10.60;9.03;;;31.90;99.90;;;;;;6267011;22;20615;-67
2023/06/22 11:42:01;;;;;;;11.03;6.70;;;31.90;99.90;;;;;;6266772;22;20541;-66
2023/06/22 11:44:27;;;;;;;13.47;8.20;;;31.90;99.90;;;;;;6264092;22;20150;-66
2023/06/22 11:46:53;;;;;;;12.73;8.80;;;31.90;99.90;;;;;;6266056;22;20526;-66
2023/06/22 11:49:18;;;;;;;8.80;7.77;;;31.90;99.90;;;;;;6266269;22;20737;-67
2023/06/22 11:51:44;;;;;;;10.47;7.53;;;31.80;99.90;;;;;;6264151;22;20150;-67
2023/06/22 11:54:09;;;;;;;9.07;7.90;;;31.80;99.90;;;;;;6266884;22;20154;-67
2023/06/22 11:56:35;;;;;;;11.90;8.10;;;31.80;99.90;;;;;;6265311;22;20261;-67
2023/06/22 11:59:00;;;;;;;10.80;8.47;;;31.80;99.90;;;;;;6265791;22;20170;-66
2023/06/22 12:01:26;;;;;;;7.43;6.53;;;31.80;99.90;;;;;;6266976;22;20168;-66
2023/06/22 12:03:51;;;;;;;14.77;9.40;;;31.90;99.90;;;;;;6264882;22;20147;-67
2023/06/22 12:06:17;;;;;;;9.07;7.23;;;32.00;99.90;;;;;;6265187;22;20735;-67
2023/06/22 12:08:43;;;;;;;8.60;7.70;;;32.10;99.90;;;;;;6263982;22;20323;-66
2023/06/22 12:11:08;;;;;;;11.43;7.30;;;32.20;99.90;;;;;;6265654;22;20151;-66
2023/06/22 12:13:34;;;;;;;10.30;7.90;;;32.30;99.90;;;;;;6238318;22;20244;-67
2023/06/22 12:15:59;;;;;;;11.33;8.43;;;32.50;99.90;;;;;;6265269;22;20174;-67
2023/06/22 12:18:25;;;;;;;10.17;7.53;;;32.60;99.90;;;;;;6264551;22;20720;-66
2023/06/22 12:20:50;;;;;;;9.30;7.30;;;32.80;99.90;;;;;;6264386;22;20193;-66
2023/06/22 12:23:16;;;;;;;12.67;7.70;;;32.80;99.90;;;;;;6264398;22;20169;-67
2023/06/22 12:25:42;;;;;;;14.67;9.70;;;32.90;99.90;;;;;;6267032;22;20193;-66
2023/06/22 12:28:07;;;;;;;11.33;7.83;;;32.90;99.90;;;;;;6266328;22;20626;-66
2023/06/22 12:30:33;;;;;;;10.00;7.83;;;32.90;99.90;;;;;;6264819;22;20154;-66
2023/06/22 12:32:59;;;;;;;11.73;7.23;;;32.90;99.90;;;;;;6265760;22;20147;-66
2023/06/22 12:35:24;;;;;;;11.27;7.73;;;32.80;99.90;;;;;;6263834;22;20178;-66
2023/06/22 12:37:50;;;;;;;13.63;8.47;;;32.70;99.90;;;;;;6265407;22;20452;-66